createdAt,value
2023-01-06T00:01:03.792Z,19.8
2023-01-06T00:05:55.636Z,19.8
2023-01-06T00:11:19.414Z,19.8
2023-01-06T00:16:27.225Z,19.8
2023-01-06T00:21:33.747Z,19.7
2023-01-06T00:26:26.558Z,19.8
2023-01-06T00:31:34.149Z,19.8
2023-01-06T00:36:41.560Z,19.7
2023-01-06T00:41:34.594Z,19.7
2023-01-06T00:46:26.431Z,19.7
2023-01-06T00:51:42.404Z,19.7
2023-01-06T00:56:50.035Z,19.7
2023-01-06T01:01:57.715Z,19.7
2023-01-06T01:07:05.217Z,19.6
2023-01-06T01:12:12.184Z,19.6
2023-01-06T01:17:04.703Z,19.6
2023-01-06T01:22:11.818Z,19.7
2023-01-06T01:27:34.999Z,19.6
2023-01-06T01:32:42.691Z,19.6
2023-01-06T01:37:50.560Z,19.6
2023-01-06T01:42:57.458Z,19.6
2023-01-06T01:47:49.523Z,19.6
2023-01-06T01:52:56.497Z,19.6
2023-01-06T01:58:04.024Z,19.6
2023-01-06T02:03:13.115Z,19.6
2023-01-06T02:08:20.674Z,19.6
2023-01-06T02:13:27.888Z,19.6
2023-01-06T02:18:20.231Z,19.7
2023-01-06T02:23:27.450Z,19.8
2023-01-06T02:28:35.455Z,19.9
2023-01-06T02:33:42.535Z,19.9
2023-01-06T02:39:05.520Z,20
2023-01-06T02:43:57.652Z,20.1
2023-01-06T02:49:05.925Z,20.2
2023-01-06T02:54:13.781Z,20.3
2023-01-06T02:59:05.121Z,20.3
2023-01-06T03:04:29.940Z,20.4
2023-01-06T03:09:36.884Z,20.6
2023-01-06T03:14:28.492Z,20.7
2023-01-06T03:19:36.999Z,20.8
2023-01-06T03:24:44.671Z,20.9
2023-01-06T03:29:36.282Z,20.9
2023-01-06T03:34:26.417Z,20.9
2023-01-06T03:39:34.535Z,21
2023-01-06T03:44:37.947Z,21
2023-01-06T03:50:00.589Z,21.1
2023-01-06T03:55:08.740Z,21.1
2023-01-06T04:09:59.591Z,21.2
2023-01-06T04:14:52.077Z,21.2
2023-01-06T04:19:59.811Z,21.3
2023-01-06T04:25:06.476Z,21.3
2023-01-06T04:30:14.793Z,21.3
2023-01-06T04:35:22.841Z,21.3
2023-01-06T04:40:47.553Z,21.3
2023-01-06T04:46:11.115Z,21.3
2023-01-06T04:51:34.266Z,21.4
2023-01-06T04:56:59.758Z,21.4
2023-01-06T05:02:23.956Z,21.4
2023-01-06T05:07:40.777Z,21.4
2023-01-06T05:13:02.726Z,21.4
2023-01-06T05:18:10.823Z,21.4
2023-01-06T05:23:03.083Z,21.4
2023-01-06T05:27:53.627Z,21.4
2023-01-06T05:33:00.475Z,21.4
2023-01-06T05:38:08.946Z,21.4
2023-01-06T05:42:44.833Z,21.4
2023-01-06T05:47:51.382Z,21.4
2023-01-06T05:52:59.977Z,21.4
2023-01-06T05:58:08.165Z,21.5
2023-01-06T06:03:31.297Z,21.4
2023-01-06T06:08:54.674Z,21.4
2023-01-06T06:14:02.980Z,21.4
2023-01-06T06:19:25.023Z,21.4
2023-01-06T06:24:32.401Z,21.4
2023-01-06T06:29:55.847Z,21.4
2023-01-06T06:35:18.087Z,21.4
2023-01-06T06:40:41.332Z,21.4
2023-01-06T06:46:05.294Z,21.4
2023-01-06T06:51:27.868Z,21.4
2023-01-06T06:56:51.359Z,21.4
2023-01-06T07:02:16.000Z,21.3
2023-01-06T07:07:39.176Z,21.3
2023-01-06T07:12:47.886Z,21.3
2023-01-06T07:17:40.622Z,21.3
2023-01-06T07:23:04.329Z,21.3
2023-01-06T07:28:27.821Z,21.3
2023-01-06T07:33:51.545Z,21.3
2023-01-06T07:39:14.754Z,21.3
2023-01-06T07:44:38.678Z,21.3
2023-01-06T07:50:03.146Z,21.3
2023-01-06T07:55:27.652Z,21.3
2023-01-06T08:00:35.715Z,21.3
2023-01-06T08:06:00.690Z,21.3
2023-01-06T08:11:24.135Z,21.3
2023-01-06T08:16:48.228Z,21.3
2023-01-06T08:21:56.404Z,21.3
2023-01-06T08:27:19.944Z,21.3
2023-01-06T08:32:51.808Z,21.3
2023-01-06T08:38:15.918Z,21.3
2023-01-06T08:43:38.848Z,21.3
2023-01-06T08:49:02.664Z,38.4
2023-01-06T08:59:19.518Z,46.8
2023-01-06T09:04:43.464Z,42.3
2023-01-06T09:09:52.457Z,38.9
2023-01-06T09:15:17.581Z,42.8
2023-01-06T09:20:41.674Z,58.8
2023-01-06T09:26:06.055Z,51.3
2023-01-06T09:31:13.955Z,45.9
2023-01-06T09:36:38.178Z,41.8
2023-01-06T09:42:01.957Z,55.5
2023-01-06T09:47:26.020Z,59.3
2023-01-06T09:52:33.947Z,51
2023-01-06T09:57:42.188Z,48
2023-01-06T10:03:06.404Z,61.8
2023-01-06T10:08:30.806Z,57.4
2023-01-06T10:13:39.228Z,56.7
2023-01-06T10:19:03.105Z,57.9
2023-01-06T10:24:27.144Z,58.1
2023-01-06T10:29:51.435Z,53.2
2023-01-06T10:35:18.683Z,47.5
2023-01-06T10:40:45.119Z,62.9
2023-01-06T10:46:09.718Z,55.5
2023-01-06T10:51:17.697Z,49.1
2023-01-06T10:56:26.334Z,44.8
2023-01-06T11:01:35.364Z,41.1
2023-01-06T11:07:19.978Z,38.3
2023-01-06T11:12:52.191Z,36.1
2023-01-06T11:18:16.291Z,34.3
2023-01-06T11:23:26.010Z,32.9
2023-01-06T11:28:50.149Z,41
2023-01-06T11:34:13.915Z,59.9
2023-01-06T11:39:21.956Z,52.1
2023-01-06T11:44:59.015Z,46.6
2023-01-06T11:50:24.531Z,42.5
2023-01-06T11:55:48.031Z,58.5
2023-01-06T12:01:12.126Z,57.3
2023-01-06T12:06:36.619Z,49.9
2023-01-06T12:11:59.587Z,45.2
2023-01-06T12:17:50.517Z,41.2
2023-01-06T12:22:58.688Z,38.3
2023-01-06T12:28:22.185Z,36.3
2023-01-06T12:33:46.189Z,34.4
2023-01-06T12:38:54.730Z,33
2023-01-06T12:44:18.505Z,31.8
2023-01-06T12:49:47.941Z,30.7
2023-01-06T12:55:21.927Z,29.7
2023-01-06T13:05:53.918Z,28.2
2023-01-06T13:11:17.185Z,27.6
2023-01-06T13:16:40.865Z,27.1
2023-01-06T13:22:07.299Z,26.6
2023-01-06T13:27:31.009Z,26.1
2023-01-06T13:32:23.195Z,25.8
2023-01-06T13:37:46.730Z,25.4
2023-01-06T13:43:10.345Z,25.2
2023-01-06T13:48:34.117Z,24.9
2023-01-06T13:53:26.937Z,24.8
2023-01-06T13:58:51.059Z,24.5
2023-01-06T14:04:00.403Z,24.3
2023-01-06T14:09:08.582Z,24.1
2023-01-06T14:14:32.833Z,24
2023-01-06T14:19:40.926Z,23.9
2023-01-06T14:25:05.076Z,23.8
2023-01-06T14:30:30.426Z,23.6
2023-01-06T14:35:53.245Z,23.5
2023-01-06T14:41:16.888Z,23.4
2023-01-06T14:46:25.549Z,23.3
2023-01-06T14:51:54.826Z,23.2
2023-01-06T14:57:02.989Z,23.1
2023-01-06T15:02:11.597Z,23.1
2023-01-06T15:07:18.571Z,22.9
2023-01-06T15:12:46.628Z,22.9
2023-01-06T15:18:01.015Z,22.8
2023-01-06T15:23:23.515Z,22.8
2023-01-06T15:28:16.150Z,22.8
2023-01-06T15:33:24.763Z,22.7
2023-01-06T15:38:48.370Z,22.6
2023-01-06T15:44:12.777Z,22.6
2023-01-06T15:49:36.349Z,22.5
2023-01-06T15:54:43.285Z,22.5
2023-01-06T16:00:10.582Z,22.5
2023-01-06T16:05:04.293Z,22.4
2023-01-06T16:09:55.199Z,22.4
2023-01-06T16:14:30.380Z,22.4
2023-01-06T16:19:38.627Z,22.4
2023-01-06T16:25:02.509Z,22.3
2023-01-06T16:30:09.570Z,22.3
2023-01-06T16:35:17.295Z,22.3
2023-01-06T16:40:25.078Z,22.3
2023-01-06T16:45:48.114Z,22.3
2023-01-06T16:50:40.741Z,22.3
2023-01-06T16:56:05.120Z,22.2
2023-01-06T17:01:13.103Z,22.2
2023-01-06T17:06:22.086Z,22.2
2023-01-06T17:11:45.726Z,22.2
2023-01-06T17:17:08.892Z,22.1
2023-01-06T17:22:17.229Z,22.1
2023-01-06T17:27:41.111Z,22.1
2023-01-06T17:32:48.881Z,22.1
2023-01-06T17:37:56.766Z,22.1
2023-01-06T17:43:20.653Z,22.1
2023-01-06T17:48:12.318Z,22.1
2023-01-06T17:53:34.671Z,22
2023-01-06T17:58:26.909Z,22
2023-01-06T18:03:50.123Z,22
2023-01-06T18:08:57.731Z,22
2023-01-06T18:14:21.678Z,21.9
2023-01-06T18:19:29.884Z,21.9
2023-01-06T18:24:39.283Z,21.9
2023-01-06T18:30:03.170Z,21.9
2023-01-06T18:35:11.100Z,21.9
2023-01-06T18:40:19.187Z,21.8
2023-01-06T18:45:28.182Z,21.8
2023-01-06T18:50:35.902Z,21.8
2023-01-06T18:55:28.327Z,21.8
2023-01-06T19:00:20.733Z,21.7
2023-01-06T19:05:28.719Z,21.7
2023-01-06T19:10:54.556Z,21.7
2023-01-06T19:16:18.828Z,21.7
2023-01-06T19:21:26.902Z,21.6
2023-01-06T19:26:38.247Z,21.6
2023-01-06T19:31:33.836Z,21.6
2023-01-06T19:36:48.389Z,21.6
2023-01-06T19:41:58.993Z,21.6
2023-01-06T19:47:26.563Z,21.6
2023-01-06T19:52:36.259Z,21.6
2023-01-06T19:57:47.332Z,21.6
2023-01-06T20:03:01.184Z,21.6
2023-01-06T20:08:11.441Z,21.6
2023-01-06T20:13:20.060Z,21.5
2023-01-06T20:18:46.350Z,21.5
2023-01-06T20:23:42.355Z,21.5
2023-01-06T20:29:11.201Z,21.5
2023-01-06T20:33:52.488Z,21.5
2023-01-06T20:39:18.888Z,21.5
2023-01-06T20:44:44.179Z,21.5
2023-01-06T20:49:52.223Z,21.5
2023-01-06T20:55:15.172Z,21.4
2023-01-06T21:00:23.232Z,21.4
2023-01-06T21:05:33.295Z,21.4
2023-01-06T21:10:40.818Z,21.4
2023-01-06T21:15:48.781Z,21.4
2023-01-06T21:20:41.131Z,21.4
2023-01-06T21:26:04.345Z,21.4
2023-01-06T21:31:28.291Z,21.4
2023-01-06T21:36:35.387Z,21.4
2023-01-06T21:41:27.170Z,21.4
2023-01-06T21:46:21.683Z,21.4
2023-01-06T21:51:44.190Z,21.4
2023-01-06T21:56:52.033Z,21.4
2023-01-06T22:01:59.885Z,21.4
2023-01-06T22:07:22.970Z,21.4
2023-01-06T22:12:31.055Z,21.4
2023-01-06T22:17:54.451Z,21.4
2023-01-06T22:23:01.116Z,21.4
2023-01-06T22:27:54.074Z,21.4
2023-01-06T22:33:17.851Z,21.4
2023-01-06T22:38:25.195Z,21.4
2023-01-06T22:43:48.717Z,21.4
2023-01-06T22:48:56.994Z,21.4
2023-01-06T22:54:03.659Z,21.3
2023-01-06T22:58:56.482Z,21.4
2023-01-06T23:04:21.800Z,21.3
2023-01-06T23:09:24.209Z,21.3
2023-01-06T23:14:16.495Z,21.3
2023-01-06T23:19:40.014Z,21.3
2023-01-06T23:24:50.056Z,21.3
2023-01-06T23:30:13.648Z,21.3
2023-01-06T23:35:05.742Z,21.3
2023-01-06T23:40:28.521Z,21.3
2023-01-06T23:45:46.184Z,21.2
2023-01-06T23:50:38.652Z,21.2
2023-01-06T23:56:01.608Z,21.2
